Time;durP1;ratioP1;P1;durP2;ratioP2;P2;SDS_P1;SDS_P2;PMS_P1;PMS_P2;Temp;Humidity;BMP_temperature;BMP_pressure;BME280_temperature;BME280_humidity;BME280_pressure;Samples;Min_cycle;Max_cycle;Signal;HPM_P1;HPM_P2
2021/11/30 00:02:22;;;;;;;3.53;1.90;;;;;;;;;;5038428;28;20345;-69
2021/11/30 00:04:47;;;;;;;2.50;1.97;;;;;;;;;;5044465;28;21100;-70
2021/11/30 00:07:13;;;;;;;4.63;1.70;;;;;;;;;;5043826;28;20199;-69
2021/11/30 00:12:05;;;;;;;3.03;1.57;;;;;;;;;;5045768;28;20183;-69
2021/11/30 00:14:30;;;;;;;3.13;1.43;;;;;;;;;;5050448;28;20180;-69
2021/11/30 00:16:57;;;;;;;3.70;1.57;;;;;;;;;;5046763;28;20603;-69
2021/11/30 00:19:23;;;;;;;2.00;1.43;;;;;;;;;;5044094;28;20972;-69
2021/11/30 00:21:48;;;;;;;2.83;1.00;;;;;;;;;;5042260;28;20433;-69
2021/11/30 00:24:13;;;;;;;3.10;1.10;;;;;;;;;;5050644;28;20364;-69
2021/11/30 00:26:39;;;;;;;3.30;1.20;;;;;;;;;;5049579;28;20286;-71
2021/11/30 00:29:04;;;;;;;3.33;1.20;;;;;;;;;;5050644;28;20175;-71
2021/11/30 00:31:29;;;;;;;4.97;1.20;;;;;;;;;;5044795;28;20305;-72
2021/11/30 00:33:55;;;;;;;2.10;1.47;;;;;;;;;;5049598;28;20310;-71
2021/11/30 00:36:21;;;;;;;4.17;1.40;;;;;;;;;;5050205;28;20353;-71
2021/11/30 00:38:46;;;;;;;3.30;1.30;;;;;;;;;;5053601;28;20179;-72
2021/11/30 00:41:11;;;;;;;5.17;1.17;;;;;;;;;;5046611;28;21147;-72
2021/11/30 00:43:38;;;;;;;2.10;1.30;;;;;;;;;;5050181;28;20210;-71
2021/11/30 00:46:16;;;;;;;2.60;1.23;;;;;;;;;;5068446;28;20265;-71
2021/11/30 00:48:41;;;;;;;2.33;1.53;;;;;;;;;;5053546;28;20429;-71
2021/11/30 00:51:09;;;;;;;2.97;1.07;;;;;;;;;;5046231;28;20554;-71
2021/11/30 00:53:34;;;;;;;4.50;1.50;;;;;;;;;;5056482;28;20189;-70
2021/11/30 00:56:00;;;;;;;4.50;1.37;;;;;;;;;;5055311;28;20815;-71
2021/11/30 00:58:25;;;;;;;4.03;1.37;;;;;;;;;;5056766;28;20647;-72
2021/11/30 01:00:50;;;;;;;2.83;1.10;;;;;;;;;;5051217;28;20185;-72
2021/11/30 01:03:16;;;;;;;1.90;1.00;;;;;;;;;;5050475;28;20499;-72
2021/11/30 01:05:41;;;;;;;5.63;1.50;;;;;;;;;;5044360;28;20203;-71
2021/11/30 01:08:07;;;;;;;4.63;1.10;;;;;;;;;;5048846;28;20214;-71
2021/11/30 01:10:33;;;;;;;5.30;1.20;;;;;;;;;;5051410;28;20295;-71
2021/11/30 01:12:58;;;;;;;3.67;1.10;;;;;;;;;;5058631;28;20183;-71
2021/11/30 01:15:24;;;;;;;4.50;1.50;;;;;;;;;;5052099;28;20456;-72
2021/11/30 01:17:49;;;;;;;5.80;1.90;;;;;;;;;;5057465;28;20191;-72
2021/11/30 01:20:15;;;;;;;6.13;2.10;;;;;;;;;;5057986;28;20266;-71
2021/11/30 01:22:41;;;;;;;4.90;1.90;;;;;;;;;;5053048;28;20278;-72
2021/11/30 01:25:07;;;;;;;9.70;1.73;;;;;;;;;;5055473;28;20203;-72
2021/11/30 01:27:32;;;;;;;4.73;1.47;;;;;;;;;;5047266;28;20437;-72
2021/11/30 01:29:58;;;;;;;4.00;1.30;;;;;;;;;;5052614;28;20519;-72
2021/11/30 01:32:23;;;;;;;3.10;1.53;;;;;;;;;;5055538;28;20174;-70
2021/11/30 01:34:49;;;;;;;3.80;1.70;;;;;;;;;;5053401;28;20640;-73
2021/11/30 01:37:16;;;;;;;4.80;1.90;;;;;;;;;;5047275;28;20745;-72
2021/11/30 01:39:42;;;;;;;5.07;1.63;;;;;;;;;;5047733;28;20190;-72
2021/11/30 01:42:08;;;;;;;5.77;1.63;;;;;;;;;;5055834;28;20464;-72
2021/11/30 01:47:08;;;;;;;4.80;1.50;;;;;;;;;;5053476;28;20456;-73
2021/11/30 01:49:34;;;;;;;2.53;1.17;;;;;;;;;;5053794;28;20423;-73
2021/11/30 01:52:09;;;;;;;8.67;1.73;;;;;;;;;;5052554;28;20484;-71
2021/11/30 01:54:39;;;;;;;4.77;1.47;;;;;;;;;;5053114;28;20526;-71
2021/11/30 01:57:08;;;;;;;2.47;1.53;;;;;;;;;;5052633;28;20454;-70
2021/11/30 01:59:33;;;;;;;5.60;1.50;;;;;;;;;;5054516;28;21109;-71
2021/11/30 02:01:59;;;;;;;7.10;1.80;;;;;;;;;;5047520;28;20431;-71
2021/11/30 02:04:24;;;;;;;6.43;1.70;;;;;;;;;;5066275;28;20271;-71
2021/11/30 02:06:50;;;;;;;2.70;1.20;;;;;;;;;;5044540;28;20281;-71
2021/11/30 02:09:15;;;;;;;2.67;1.47;;;;;;;;;;5063188;28;20179;-70
2021/11/30 02:11:40;;;;;;;5.13;1.30;;;;;;;;;;5048744;28;20565;-72
2021/11/30 02:14:06;;;;;;;3.30;1.80;;;;;;;;;;5056315;28;20172;-71
2021/11/30 02:16:31;;;;;;;3.37;1.60;;;;;;;;;;5067240;28;20193;-71
2021/11/30 02:19:00;;;;;;;5.47;1.50;;;;;;;;;;5061056;28;20173;-71
2021/11/30 02:21:26;;;;;;;5.47;2.17;;;;;;;;;;5052966;28;20180;-71
2021/11/30 02:23:59;;;;;;;3.60;1.93;;;;;;;;;;5048937;28;20973;-70
2021/11/30 02:26:25;;;;;;;3.43;1.43;;;;;;;;;;5054079;28;20462;-70
2021/11/30 02:28:51;;;;;;;6.30;1.70;;;;;;;;;;5053505;28;20498;-70
2021/11/30 02:31:17;;;;;;;4.63;1.80;;;;;;;;;;5052480;28;20683;-73
2021/11/30 02:33:42;;;;;;;2.03;1.70;;;;;;;;;;5054447;28;20472;-70
2021/11/30 02:36:26;;;;;;;1.83;1.63;;;;;;;;;;5049704;28;20964;-69
2021/11/30 02:38:53;;;;;;;3.30;1.80;;;;;;;;;;5050076;28;20715;-71
2021/11/30 02:41:18;;;;;;;4.60;1.70;;;;;;;;;;5053591;28;20439;-71
2021/11/30 02:43:43;;;;;;;1.67;1.40;;;;;;;;;;5046974;28;20425;-69
2021/11/30 02:46:09;;;;;;;4.50;1.57;;;;;;;;;;5054941;28;20194;-71
2021/11/30 02:48:34;;;;;;;5.30;2.00;;;;;;;;;;5051705;28;20210;-71
2021/11/30 02:51:04;;;;;;;4.00;1.90;;;;;;;;;;5050262;28;20567;-70
2021/11/30 02:53:29;;;;;;;4.07;1.70;;;;;;;;;;5046685;28;20229;-70
2021/11/30 02:55:55;;;;;;;2.90;1.70;;;;;;;;;;5048296;28;20427;-71
2021/11/30 02:58:20;;;;;;;3.30;1.70;;;;;;;;;;5055995;28;20182;-71
2021/11/30 03:00:45;;;;;;;5.40;1.50;;;;;;;;;;5048914;28;20607;-71
2021/11/30 03:03:11;;;;;;;3.13;1.83;;;;;;;;;;5055480;28;20203;-71
2021/11/30 03:05:36;;;;;;;2.67;1.77;;;;;;;;;;5052350;28;20207;-70
2021/11/30 03:08:02;;;;;;;2.53;2.33;;;;;;;;;;5048715;28;20179;-70
2021/11/30 03:10:27;;;;;;;5.77;2.00;;;;;;;;;;5053766;28;20191;-71
2021/11/30 03:12:53;;;;;;;4.90;1.67;;;;;;;;;;5049198;28;20231;-71
2021/11/30 03:15:23;;;;;;;3.13;1.50;;;;;;;;;;5056399;28;20313;-71
2021/11/30 03:17:49;;;;;;;4.20;1.80;;;;;;;;;;5052701;28;20195;-70
2021/11/30 03:20:15;;;;;;;3.87;1.80;;;;;;;;;;5045978;28;20444;-70
2021/11/30 03:22:40;;;;;;;4.60;1.97;;;;;;;;;;5054195;28;20440;-70
2021/11/30 03:25:07;;;;;;;7.30;1.93;;;;;;;;;;5048865;28;20422;-70
2021/11/30 03:27:32;;;;;;;3.77;1.63;;;;;;;;;;5067034;28;20197;-70
2021/11/30 03:29:57;;;;;;;3.50;1.90;;;;;;;;;;5049747;28;20941;-70
2021/11/30 03:34:57;;;;;;;3.50;1.80;;;;;;;;;;5055508;28;20173;-70
2021/11/30 03:37:22;;;;;;;2.60;2.00;;;;;;;;;;5043195;28;20430;-71
2021/11/30 03:39:48;;;;;;;1.80;1.40;;;;;;;;;;5052248;28;20176;-71
2021/11/30 03:42:13;;;;;;;2.73;1.83;;;;;;;;;;5051006;28;20260;-71
2021/11/30 03:44:38;;;;;;;2.33;1.80;;;;;;;;;;5051877;28;25078;-70
2021/11/30 03:47:04;;;;;;;5.17;2.37;;;;;;;;;;5049430;28;20198;-71
2021/11/30 03:49:29;;;;;;;4.33;1.87;;;;;;;;;;5049890;28;20531;-71
2021/11/30 03:51:55;;;;;;;2.50;1.90;;;;;;;;;;5049467;28;20289;-71
2021/11/30 03:54:20;;;;;;;2.93;2.03;;;;;;;;;;5046215;28;23880;-72
2021/11/30 03:56:46;;;;;;;2.73;1.80;;;;;;;;;;5049611;28;20279;-72
2021/11/30 03:59:11;;;;;;;2.07;1.50;;;;;;;;;;5048835;28;20235;-72
2021/11/30 04:01:36;;;;;;;1.57;1.47;;;;;;;;;;5049150;28;20456;-71
2021/11/30 04:04:08;;;;;;;2.30;1.67;;;;;;;;;;5055169;28;20686;-71
2021/11/30 04:06:33;;;;;;;1.90;1.80;;;;;;;;;;5051872;28;20214;-72
2021/11/30 04:08:59;;;;;;;1.43;1.27;;;;;;;;;;5049686;28;20429;-71
2021/11/30 04:11:24;;;;;;;1.50;1.40;;;;;;;;;;5048077;28;20762;-71
2021/11/30 04:13:50;;;;;;;1.80;1.30;;;;;;;;;;5048692;28;20263;-71
2021/11/30 04:16:16;;;;;;;1.40;1.30;;;;;;;;;;5046090;28;20706;-72
2021/11/30 04:18:41;;;;;;;2.43;1.60;;;;;;;;;;5049962;28;20217;-72
2021/11/30 04:21:06;;;;;;;2.30;1.60;;;;;;;;;;5050912;28;20436;-73
2021/11/30 04:23:33;;;;;;;2.20;1.30;;;;;;;;;;5050103;28;20199;-72
2021/11/30 04:25:58;;;;;;;4.60;1.90;;;;;;;;;;5038518;28;20765;-72
2021/11/30 04:28:24;;;;;;;2.63;1.47;;;;;;;;;;5052413;28;20445;-73
2021/11/30 04:30:49;;;;;;;1.70;1.50;;;;;;;;;;5049838;28;20289;-72
2021/11/30 04:33:15;;;;;;;3.00;2.20;;;;;;;;;;5052959;28;20317;-71
2021/11/30 04:35:40;;;;;;;2.47;2.03;;;;;;;;;;5049028;28;20213;-71
2021/11/30 04:38:05;;;;;;;5.60;2.17;;;;;;;;;;5048424;28;20273;-71
2021/11/30 04:40:31;;;;;;;3.00;2.30;;;;;;;;;;5052645;28;20239;-71
2021/11/30 04:42:56;;;;;;;2.83;2.00;;;;;;;;;;5049210;28;20184;-71
2021/11/30 04:45:33;;;;;;;2.20;2.00;;;;;;;;;;5047807;28;20222;-71
2021/11/30 04:47:59;;;;;;;4.27;2.10;;;;;;;;;;5050764;28;20181;-72
2021/11/30 04:50:27;;;;;;;2.20;2.00;;;;;;;;;;5046997;28;20465;-71
2021/11/30 04:52:56;;;;;;;7.03;1.97;;;;;;;;;;5052380;28;20657;-71
2021/11/30 04:55:24;;;;;;;4.33;2.27;;;;;;;;;;5051384;28;20454;-72
2021/11/30 04:57:52;;;;;;;5.00;1.90;;;;;;;;;;5048786;28;20425;-72
2021/11/30 05:00:17;;;;;;;3.40;1.80;;;;;;;;;;5050146;28;20429;-71
2021/11/30 05:02:43;;;;;;;8.00;2.00;;;;;;;;;;5049829;28;20441;-72
2021/11/30 05:05:11;;;;;;;6.90;2.20;;;;;;;;;;5048385;28;20183;-71
2021/11/30 05:07:36;;;;;;;6.50;2.27;;;;;;;;;;5063917;28;20286;-71
2021/11/30 05:10:01;;;;;;;13.40;2.50;;;;;;;;;;5048180;28;22940;-70
2021/11/30 05:12:27;;;;;;;9.30;2.40;;;;;;;;;;5051449;28;20270;-71
2021/11/30 05:14:52;;;;;;;9.70;2.27;;;;;;;;;;5052432;28;20183;-71
2021/11/30 05:17:17;;;;;;;11.17;2.40;;;;;;;;;;5049427;28;20664;-70
2021/11/30 05:19:42;;;;;;;12.10;2.80;;;;;;;;;;5051493;28;20601;-71
2021/11/30 05:22:11;;;;;;;10.03;1.83;;;;;;;;;;5047299;28;20210;-72
2021/11/30 05:24:39;;;;;;;6.93;2.07;;;;;;;;;;5050387;28;20194;-71
2021/11/30 05:27:04;;;;;;;10.60;2.03;;;;;;;;;;5045898;28;20979;-71
2021/11/30 05:29:29;;;;;;;7.40;1.90;;;;;;;;;;5065655;28;20449;-70
2021/11/30 05:31:55;;;;;;;13.30;2.90;;;;;;;;;;5041338;28;20650;-70
2021/11/30 05:34:20;;;;;;;16.70;2.80;;;;;;;;;;5048784;28;20192;-70
2021/11/30 05:36:45;;;;;;;11.57;2.67;;;;;;;;;;5049588;28;20199;-73
2021/11/30 05:39:11;;;;;;;10.00;2.43;;;;;;;;;;5052448;28;20175;-71
2021/11/30 05:41:36;;;;;;;18.30;3.47;;;;;;;;;;5045031;28;20659;-72
2021/11/30 05:44:01;;;;;;;15.00;3.20;;;;;;;;;;5054927;28;20213;-71
2021/11/30 05:46:27;;;;;;;10.33;2.13;;;;;;;;;;5050952;28;20199;-72
2021/11/30 05:48:53;;;;;;;9.63;3.00;;;;;;;;;;5048504;28;20183;-72
2021/11/30 05:51:18;;;;;;;15.47;2.87;;;;;;;;;;5051800;28;20472;-72
2021/11/30 05:53:43;;;;;;;14.50;3.27;;;;;;;;;;5053071;28;20232;-72
2021/11/30 05:56:10;;;;;;;15.13;2.70;;;;;;;;;;5052407;28;20200;-72
2021/11/30 05:58:38;;;;;;;14.17;3.30;;;;;;;;;;5052682;28;20266;-71
2021/11/30 06:01:10;;;;;;;8.67;2.00;;;;;;;;;;5050335;28;20494;-73
2021/11/30 06:03:56;;;;;;;11.60;2.27;;;;;;;;;;5051630;28;25150;-71
2021/11/30 06:06:21;;;;;;;15.20;2.40;;;;;;;;;;5049501;28;25093;-70
2021/11/30 06:08:47;;;;;;;14.33;2.57;;;;;;;;;;5049375;28;25099;-71
2021/11/30 06:11:13;;;;;;;7.70;1.33;;;;;;;;;;5049475;28;20804;-71
2021/11/30 06:13:38;;;;;;;11.30;1.93;;;;;;;;;;5053274;28;20471;-71
2021/11/30 06:16:04;;;;;;;14.03;2.00;;;;;;;;;;5046216;28;20211;-71
2021/11/30 06:18:29;;;;;;;11.33;1.60;;;;;;;;;;5047524;28;20179;-72
2021/11/30 06:20:54;;;;;;;9.80;2.33;;;;;;;;;;5048028;28;20174;-70
2021/11/30 06:23:23;;;;;;;15.50;2.07;;;;;;;;;;5049437;28;25084;-71
2021/11/30 06:25:48;;;;;;;17.70;2.77;;;;;;;;;;5048108;28;20233;-70
2021/11/30 06:28:14;;;;;;;9.93;2.13;;;;;;;;;;5051568;28;20946;-71
2021/11/30 06:30:39;;;;;;;10.23;2.07;;;;;;;;;;5032451;28;20690;-71
2021/11/30 06:33:04;;;;;;;10.80;2.23;;;;;;;;;;5043027;28;25061;-71
2021/11/30 06:35:30;;;;;;;13.87;2.33;;;;;;;;;;5039152;28;25111;-72
2021/11/30 06:37:55;;;;;;;16.60;3.23;;;;;;;;;;5043391;28;25069;-71
2021/11/30 06:40:25;;;;;;;11.97;3.07;;;;;;;;;;5046262;28;25090;-71
2021/11/30 06:42:53;;;;;;;16.47;2.63;;;;;;;;;;5044491;28;20278;-71
2021/11/30 06:45:19;;;;;;;15.60;2.47;;;;;;;;;;5068975;28;25116;-72
2021/11/30 06:47:44;;;;;;;16.03;3.00;;;;;;;;;;5048196;28;25111;-71
2021/11/30 06:50:10;;;;;;;9.63;2.40;;;;;;;;;;5048770;28;25141;-71
2021/11/30 06:52:39;;;;;;;13.63;3.13;;;;;;;;;;5044369;28;26181;-71
2021/11/30 06:55:05;;;;;;;7.30;1.97;;;;;;;;;;5041443;28;25107;-72
2021/11/30 06:57:30;;;;;;;13.83;3.37;;;;;;;;;;5043634;28;25144;-71
2021/11/30 07:00:04;;;;;;;13.17;2.70;;;;;;;;;;5046253;28;20939;-71
2021/11/30 07:02:30;;;;;;;15.33;2.90;;;;;;;;;;5042037;28;25067;-70
2021/11/30 07:04:58;;;;;;;18.70;3.20;;;;;;;;;;5038038;28;25203;-70
2021/11/30 07:13:22;;;;;;;16.93;3.03;;;;;;;;;;5043067;28;25144;-73
2021/11/30 07:16:09;;;;;;;19.20;2.90;;;;;;;;;;5043478;28;25101;-73
2021/11/30 07:18:35;;;;;;;12.27;2.57;;;;;;;;;;5062910;28;25203;-71
2021/11/30 07:21:01;;;;;;;14.60;3.77;;;;;;;;;;5039018;28;25094;-72
2021/11/30 07:23:57;;;;;;;13.50;3.33;;;;;;;;;;5043575;28;25111;-73
2021/11/30 07:26:26;;;;;;;15.53;2.97;;;;;;;;;;5036379;28;25117;-73
2021/11/30 07:28:51;;;;;;;29.23;3.67;;;;;;;;;;5044091;28;25105;-72
2021/11/30 07:31:17;;;;;;;15.77;2.60;;;;;;;;;;5040144;28;25119;-70
2021/11/30 07:33:45;;;;;;;8.50;2.57;;;;;;;;;;5045836;28;25075;-72
2021/11/30 07:36:11;;;;;;;9.67;2.63;;;;;;;;;;5041707;28;25077;-71
2021/11/30 07:38:37;;;;;;;15.17;2.47;;;;;;;;;;5042265;28;25096;-72
2021/11/30 07:41:03;;;;;;;12.60;2.60;;;;;;;;;;5041969;28;25101;-71
2021/11/30 07:43:28;;;;;;;13.47;2.70;;;;;;;;;;5045997;28;25097;-71
2021/11/30 07:46:08;;;;;;;18.20;3.60;;;;;;;;;;5045857;28;25195;-72
2021/11/30 07:48:34;;;;;;;16.80;2.40;;;;;;;;;;5046340;28;25079;-71
2021/11/30 07:51:00;;;;;;;19.10;2.93;;;;;;;;;;5037558;28;25197;-70
2021/11/30 07:53:25;;;;;;;13.30;2.40;;;;;;;;;;5051806;28;25146;-71
2021/11/30 07:55:51;;;;;;;12.47;2.57;;;;;;;;;;5048353;28;25113;-70
2021/11/30 07:58:18;;;;;;;14.47;3.87;;;;;;;;;;5042084;28;25154;-70
2021/11/30 08:00:44;;;;;;;11.90;2.63;;;;;;;;;;5037506;28;25147;-70
2021/11/30 08:03:09;;;;;;;15.63;2.77;;;;;;;;;;5047307;28;25120;-71
2021/11/30 08:05:35;;;;;;;11.00;2.20;;;;;;;;;;5046711;28;25162;-71
2021/11/30 08:08:00;;;;;;;8.20;2.00;;;;;;;;;;5038342;28;20197;-71
2021/11/30 08:10:28;;;;;;;8.10;2.60;;;;;;;;;;5034405;28;25062;-71
2021/11/30 08:12:53;;;;;;;16.53;3.10;;;;;;;;;;5043834;28;25112;-71
2021/11/30 08:15:19;;;;;;;9.50;2.20;;;;;;;;;;5037607;28;25183;-70
2021/11/30 08:17:44;;;;;;;10.50;3.37;;;;;;;;;;5041945;28;25129;-71
2021/11/30 08:20:10;;;;;;;14.47;2.77;;;;;;;;;;5042416;28;25059;-71
2021/11/30 08:22:36;;;;;;;14.57;3.27;;;;;;;;;;5041508;28;25187;-71
2021/11/30 08:25:24;;;;;;;15.20;4.03;;;;;;;;;;5044962;28;25166;-71
2021/11/30 08:27:51;;;;;;;15.13;2.70;;;;;;;;;;5038134;28;25114;-70
2021/11/30 08:30:17;;;;;;;15.93;3.30;;;;;;;;;;5041419;28;25162;-71
2021/11/30 08:32:42;;;;;;;15.67;2.43;;;;;;;;;;5042071;28;25117;-70
2021/11/30 08:35:08;;;;;;;21.03;3.10;;;;;;;;;;5049296;28;25070;-71
2021/11/30 08:37:34;;;;;;;16.57;3.10;;;;;;;;;;5042744;28;25139;-70
2021/11/30 08:39:59;;;;;;;12.77;3.03;;;;;;;;;;5043991;28;25122;-71
2021/11/30 08:42:25;;;;;;;16.43;3.20;;;;;;;;;;5041876;28;25079;-69
2021/11/30 08:44:51;;;;;;;19.63;3.90;;;;;;;;;;5041133;28;20220;-70
2021/11/30 08:47:18;;;;;;;18.43;3.77;;;;;;;;;;5037045;28;25083;-70
2021/11/30 08:49:52;;;;;;;19.27;3.57;;;;;;;;;;5034572;28;20533;-71
2021/11/30 08:52:22;;;;;;;22.27;3.60;;;;;;;;;;5040241;28;25187;-70
2021/11/30 08:57:30;;;;;;;17.10;2.90;;;;;;;;;;5033679;22;25107;-69
2021/11/30 08:59:56;;;;;;;13.60;3.20;;;;;;;;;;5016793;28;25118;-70
2021/11/30 09:08:33;;;;;;;15.47;3.80;;;;;;;;;;5023980;28;25106;-70
2021/11/30 09:17:44;;;;;;;15.90;3.20;;;;;;;;;;5028903;28;25105;-70
2021/11/30 09:23:31;;;;;;;12.53;3.20;;;;;;;;;;5020042;28;25201;-71
2021/11/30 09:25:57;;;;;;;16.30;3.73;;;;;;;;;;5037176;28;25148;-70
2021/11/30 09:28:22;;;;;;;20.10;3.40;;;;;;;;;;5035906;28;25089;-71
2021/11/30 09:30:48;;;;;;;17.33;3.23;;;;;;;;;;5038790;28;25137;-71
2021/11/30 09:33:20;;;;;;;15.57;3.10;;;;;;;;;;5036815;28;25133;-70
2021/11/30 09:50:32;;;;;;;10.60;2.80;;;;;;;;;;5938075;22;21249;-69
2021/11/30 09:52:58;;;;;;;11.17;2.80;;;;;;;;;;5049046;28;25101;-69
2021/11/30 09:55:24;;;;;;;8.40;1.77;;;;;;;;;;5062646;28;25134;-69
2021/11/30 09:57:50;;;;;;;9.53;2.00;;;;;;;;;;5049371;28;24984;-71
2021/11/30 10:00:16;;;;;;;6.17;1.77;;;;;;;;;;5050813;28;25181;-70
2021/11/30 10:02:42;;;;;;;7.10;1.63;;;;;;;;;;5058809;28;20478;-70
2021/11/30 10:05:07;;;;;;;5.93;1.40;;;;;;;;;;5058108;28;20808;-70
2021/11/30 10:07:40;;;;;;;7.60;2.13;;;;;;;;;;5057494;28;25179;-69
2021/11/30 10:10:38;;;;;;;4.80;2.03;;;;;;;;;;5057353;28;25079;-70
2021/11/30 10:13:04;;;;;;;9.80;2.10;;;;;;;;;;5024622;28;25113;-70
2021/11/30 10:15:30;;;;;;;15.30;2.57;;;;;;;;;;5060482;28;25100;-69
2021/11/30 10:18:14;;;;;;;8.97;2.10;;;;;;;;;;5062394;28;20669;-69
2021/11/30 10:20:40;;;;;;;20.10;2.67;;;;;;;;;;5057209;28;25115;-69
2021/11/30 10:23:05;;;;;;;16.43;2.70;;;;;;;;;;5058392;28;25093;-70
2021/11/30 10:25:35;;;;;;;13.50;3.30;;;;;;;;;;5058495;28;25157;-69
2021/11/30 10:28:03;;;;;;;8.10;2.30;;;;;;;;;;5056605;28;25077;-69
2021/11/30 10:30:30;;;;;;;9.50;2.00;;;;;;;;;;5061687;28;20871;-68
2021/11/30 10:32:58;;;;;;;12.33;2.53;;;;;;;;;;5062504;28;25139;-69
2021/11/30 10:35:25;;;;;;;12.00;2.33;;;;;;;;;;5054687;28;20786;-69
2021/11/30 10:37:50;;;;;;;6.00;1.80;;;;;;;;;;5055991;28;20432;-70
2021/11/30 10:40:17;;;;;;;16.00;2.40;;;;;;;;;;5056984;28;25117;-69
2021/11/30 10:43:02;;;;;;;9.30;2.10;;;;;;;;;;5053451;28;25084;-69
2021/11/30 10:45:31;;;;;;;12.83;2.50;;;;;;;;;;5056754;28;20531;-69
2021/11/30 10:48:02;;;;;;;8.70;2.30;;;;;;;;;;5054541;28;25177;-70
2021/11/30 10:50:32;;;;;;;9.50;2.80;;;;;;;;;;5054247;28;20566;-69
2021/11/30 10:53:00;;;;;;;8.17;2.00;;;;;;;;;;5052071;28;25100;-69
2021/11/30 10:55:26;;;;;;;9.80;2.60;;;;;;;;;;5049934;28;20703;-68
2021/11/30 10:57:51;;;;;;;11.10;2.63;;;;;;;;;;5051213;28;21204;-69
2021/11/30 11:00:28;;;;;;;9.23;2.37;;;;;;;;;;5045784;28;25061;-69
2021/11/30 11:03:09;;;;;;;5.23;1.60;;;;;;;;;;5048632;28;20182;-69
2021/11/30 11:05:39;;;;;;;7.93;2.10;;;;;;;;;;5046812;28;25167;-68
2021/11/30 11:08:05;;;;;;;10.30;1.77;;;;;;;;;;5048299;28;25155;-69
2021/11/30 11:10:31;;;;;;;7.07;1.70;;;;;;;;;;5046027;28;20467;-70
2021/11/30 11:13:15;;;;;;;9.70;2.10;;;;;;;;;;5051865;28;20197;-70
2021/11/30 11:15:40;;;;;;;11.30;2.10;;;;;;;;;;5050771;28;25078;-69
2021/11/30 11:18:18;;;;;;;6.83;1.90;;;;;;;;;;5057801;28;25177;-69
2021/11/30 11:20:43;;;;;;;8.77;2.00;;;;;;;;;;5049065;28;25051;-69
2021/11/30 11:23:18;;;;;;;7.93;2.27;;;;;;;;;;5060151;28;25110;-70
2021/11/30 11:25:43;;;;;;;10.97;2.20;;;;;;;;;;5058848;28;25164;-69
2021/11/30 11:28:08;;;;;;;7.90;1.43;;;;;;;;;;5059914;28;25125;-70
2021/11/30 11:30:33;;;;;;;5.37;1.50;;;;;;;;;;5061033;28;25073;-69
2021/11/30 11:32:59;;;;;;;5.73;1.73;;;;;;;;;;5058643;28;25158;-69
2021/11/30 11:35:24;;;;;;;7.50;1.50;;;;;;;;;;5060282;28;25068;-68
2021/11/30 11:37:52;;;;;;;7.97;1.70;;;;;;;;;;5057224;28;25050;-70
2021/11/30 11:40:18;;;;;;;9.80;1.73;;;;;;;;;;5057973;28;20186;-71
2021/11/30 11:42:43;;;;;;;7.23;1.30;;;;;;;;;;5059044;28;25092;-69
2021/11/30 11:45:08;;;;;;;6.63;1.70;;;;;;;;;;5052330;28;25054;-69
2021/11/30 11:47:35;;;;;;;5.60;1.60;;;;;;;;;;5058246;28;25047;-70
2021/11/30 11:50:09;;;;;;;10.07;1.70;;;;;;;;;;5059080;28;25086;-70
2021/11/30 11:52:37;;;;;;;11.57;2.43;;;;;;;;;;5057921;28;20444;-70
2021/11/30 11:55:07;;;;;;;16.77;2.63;;;;;;;;;;5054416;28;25120;-70
2021/11/30 11:57:33;;;;;;;9.63;2.17;;;;;;;;;;5053492;28;25113;-70
2021/11/30 12:00:17;;;;;;;11.73;2.47;;;;;;;;;;5048446;28;25137;-71
2021/11/30 12:03:02;;;;;;;10.57;2.50;;;;;;;;;;5060134;28;20436;-70
2021/11/30 12:05:40;;;;;;;12.63;2.70;;;;;;;;;;5061099;28;25115;-69
2021/11/30 12:08:15;;;;;;;8.67;1.83;;;;;;;;;;5055104;28;25136;-71
2021/11/30 12:10:40;;;;;;;8.03;2.40;;;;;;;;;;5055890;28;25117;-70
2021/11/30 12:13:06;;;;;;;11.97;2.90;;;;;;;;;;5057445;28;25197;-70
2021/11/30 12:15:32;;;;;;;12.77;3.07;;;;;;;;;;5047657;28;25100;-70
2021/11/30 12:18:16;;;;;;;11.90;2.50;;;;;;;;;;5046060;28;20186;-69
2021/11/30 12:20:45;;;;;;;10.73;2.13;;;;;;;;;;5045567;28;25116;-69
2021/11/30 12:23:11;;;;;;;7.53;1.97;;;;;;;;;;5038635;28;20443;-69
2021/11/30 12:25:47;;;;;;;7.53;2.13;;;;;;;;;;5050360;28;20515;-69
2021/11/30 12:28:32;;;;;;;9.00;2.13;;;;;;;;;;5049326;28;25063;-69
2021/11/30 12:30:58;;;;;;;14.30;2.33;;;;;;;;;;5056368;28;25170;-69
2021/11/30 12:33:28;;;;;;;17.43;2.57;;;;;;;;;;5059666;28;25115;-70
2021/11/30 12:35:58;;;;;;;12.60;2.53;;;;;;;;;;5055524;28;25104;-69
2021/11/30 12:38:23;;;;;;;16.77;3.43;;;;;;;;;;5053379;28;25122;-70
2021/11/30 12:40:49;;;;;;;14.50;2.90;;;;;;;;;;5048363;28;25194;-69
2021/11/30 12:43:17;;;;;;;13.57;2.30;;;;;;;;;;5054386;28;25081;-69
2021/11/30 12:45:45;;;;;;;13.47;3.07;;;;;;;;;;5057645;28;20225;-69
2021/11/30 12:48:22;;;;;;;14.60;2.50;;;;;;;;;;5057647;28;25102;-70
2021/11/30 12:50:47;;;;;;;12.87;2.93;;;;;;;;;;5060622;28;25111;-70
2021/11/30 12:53:13;;;;;;;9.43;3.10;;;;;;;;;;5059932;28;25136;-70
2021/11/30 12:55:56;;;;;;;13.73;3.07;;;;;;;;;;5057949;28;20252;-70
2021/11/30 12:58:56;;;;;;;9.50;2.23;;;;;;;;;;5055881;28;20276;-70
2021/11/30 13:01:23;;;;;;;9.20;2.00;;;;;;;;;;4959727;28;25160;-70
2021/11/30 13:03:49;;;;;;;16.93;3.23;;;;;;;;;;5035475;28;25184;-70
2021/11/30 13:06:15;;;;;;;16.30;3.07;;;;;;;;;;5054177;28;25091;-69
2021/11/30 13:08:58;;;;;;;14.10;2.73;;;;;;;;;;5055204;28;25111;-69
2021/11/30 13:11:26;;;;;;;14.20;3.37;;;;;;;;;;5055586;28;25061;-69
2021/11/30 13:14:17;;;;;;;11.50;2.90;;;;;;;;;;5053783;28;20225;-69
2021/11/30 13:16:45;;;;;;;12.30;3.20;;;;;;;;;;5047968;28;25109;-69
2021/11/30 13:19:11;;;;;;;8.03;2.43;;;;;;;;;;5060399;28;25183;-69
2021/11/30 13:21:38;;;;;;;12.33;2.50;;;;;;;;;;5056443;28;25088;-69
2021/11/30 13:24:05;;;;;;;9.83;2.40;;;;;;;;;;5053260;28;28212;-68
2021/11/30 13:26:31;;;;;;;12.83;2.80;;;;;;;;;;5057034;28;20444;-69
2021/11/30 13:28:59;;;;;;;9.07;2.40;;;;;;;;;;5065403;28;25111;-69
2021/11/30 13:31:24;;;;;;;8.57;2.70;;;;;;;;;;5056442;28;25191;-70
2021/11/30 13:33:49;;;;;;;11.67;2.20;;;;;;;;;;5058581;28;25192;-69
2021/11/30 13:36:15;;;;;;;19.60;3.20;;;;;;;;;;5053839;28;25125;-69
2021/11/30 13:38:46;;;;;;;11.00;2.30;;;;;;;;;;5053243;28;20182;-69
2021/11/30 13:41:15;;;;;;;13.37;2.70;;;;;;;;;;5055629;28;25078;-69
2021/11/30 13:43:42;;;;;;;6.50;2.13;;;;;;;;;;5060228;28;20474;-69
2021/11/30 13:46:16;;;;;;;11.37;2.80;;;;;;;;;;5058529;28;25173;-69
2021/11/30 13:48:46;;;;;;;14.03;3.00;;;;;;;;;;5052895;28;25114;-69
2021/11/30 13:51:24;;;;;;;8.40;2.50;;;;;;;;;;5059407;28;25110;-69
2021/11/30 13:53:49;;;;;;;10.37;2.40;;;;;;;;;;5058584;28;25109;-68
2021/11/30 13:56:18;;;;;;;12.83;2.20;;;;;;;;;;5054265;28;25173;-69
2021/11/30 13:58:47;;;;;;;12.77;2.60;;;;;;;;;;5060286;28;20189;-70
2021/11/30 14:03:46;;;;;;;14.33;2.80;;;;;;;;;;5060968;28;25137;-70
2021/11/30 14:06:23;;;;;;;13.00;3.37;;;;;;;;;;5061718;28;25112;-70
2021/11/30 14:08:49;;;;;;;11.67;2.33;;;;;;;;;;5060415;28;25145;-69
2021/11/30 14:11:15;;;;;;;6.90;1.50;;;;;;;;;;5060408;28;25190;-69
2021/11/30 14:13:41;;;;;;;7.87;1.90;;;;;;;;;;5059934;28;25084;-69
2021/11/30 14:16:06;;;;;;;7.77;2.10;;;;;;;;;;5061285;28;25100;-69
2021/11/30 14:18:31;;;;;;;5.40;1.80;;;;;;;;;;5061693;28;20216;-69
2021/11/30 14:21:12;;;;;;;8.37;1.93;;;;;;;;;;5060932;28;25052;-69
2021/11/30 14:23:37;;;;;;;5.53;2.20;;;;;;;;;;5063319;28;20197;-69
2021/11/30 14:26:02;;;;;;;6.90;1.80;;;;;;;;;;5061158;28;20459;-69
2021/11/30 14:28:29;;;;;;;7.67;2.33;;;;;;;;;;5059494;28;25063;-69
2021/11/30 14:30:57;;;;;;;7.17;1.97;;;;;;;;;;5059540;28;25135;-69
2021/11/30 14:33:22;;;;;;;11.73;2.33;;;;;;;;;;5061073;28;25163;-70
2021/11/30 14:35:49;;;;;;;5.57;1.80;;;;;;;;;;5060849;28;20428;-69
2021/11/30 14:38:23;;;;;;;9.40;2.50;;;;;;;;;;5062083;28;20206;-69
2021/11/30 14:40:49;;;;;;;11.00;2.37;;;;;;;;;;5058425;28;20481;-69
2021/11/30 14:43:18;;;;;;;8.67;2.20;;;;;;;;;;5061507;28;20817;-70
2021/11/30 14:45:45;;;;;;;8.30;2.37;;;;;;;;;;5060321;28;25053;-70
2021/11/30 14:48:13;;;;;;;5.73;1.90;;;;;;;;;;5059151;28;25110;-70
2021/11/30 14:50:57;;;;;;;10.87;2.70;;;;;;;;;;5060211;28;25129;-68
2021/11/30 14:53:23;;;;;;;14.53;2.70;;;;;;;;;;5060044;28;25153;-69
2021/11/30 14:55:51;;;;;;;8.50;2.20;;;;;;;;;;5061369;28;20465;-69
2021/11/30 14:58:19;;;;;;;12.23;2.70;;;;;;;;;;5058677;28;21111;-69
2021/11/30 15:00:46;;;;;;;9.90;2.20;;;;;;;;;;5056730;28;25089;-69
2021/11/30 15:03:16;;;;;;;10.53;2.33;;;;;;;;;;5056963;28;25138;-69
2021/11/30 15:05:43;;;;;;;11.13;2.83;;;;;;;;;;5056959;28;20857;-69
2021/11/30 15:08:27;;;;;;;13.40;2.47;;;;;;;;;;5053965;28;25099;-69
2021/11/30 15:11:00;;;;;;;11.10;3.27;;;;;;;;;;5051299;28;26217;-69
2021/11/30 15:13:46;;;;;;;11.90;2.40;;;;;;;;;;5055108;28;25101;-69
2021/11/30 15:16:23;;;;;;;15.47;2.90;;;;;;;;;;5056834;28;25146;-69
2021/11/30 15:19:09;;;;;;;17.20;2.87;;;;;;;;;;5052835;28;25058;-69
2021/11/30 15:21:36;;;;;;;12.57;2.30;;;;;;;;;;5055445;28;25147;-69
2021/11/30 15:24:02;;;;;;;14.67;2.77;;;;;;;;;;5055474;28;25098;-69
2021/11/30 15:26:36;;;;;;;13.70;2.53;;;;;;;;;;5059939;28;25102;-69
2021/11/30 15:29:03;;;;;;;11.80;3.00;;;;;;;;;;5060728;28;25104;-69
2021/11/30 15:31:28;;;;;;;7.97;2.00;;;;;;;;;;5059428;28;20479;-69
2021/11/30 15:33:53;;;;;;;17.50;2.70;;;;;;;;;;5057899;28;25090;-70